Time;durP1;ratioP1;P1;durP2;ratioP2;P2;SDS_P1;SDS_P2;PMS_P1;PMS_P2;Temp;Humidity;BMP_temperature;BMP_pressure;BME280_temperature;BME280_humidity;BME280_pressure;Samples;Min_cycle;Max_cycle;Signal;HPM_P1;HPM_P2
2022/01/07 00:02:02;;;;;;;6.57;3.25;;;;;;;0.69;61.46;100997.72;5073319;28;20032;-73
2022/01/07 00:04:35;;;;;;;8.23;3.88;;;;;;;0.64;61.42;101003.16;5073872;28;20024;-72
2022/01/07 00:07:05;;;;;;;9.35;3.60;;;;;;;0.59;61.42;100991.06;5077603;28;20028;-72
2022/01/07 00:09:33;;;;;;;10.57;4.03;;;;;;;0.62;61.54;101007.66;5061538;28;20138;-73
2022/01/07 00:11:59;;;;;;;11.43;3.97;;;;;;;0.54;61.66;101001.78;5079189;28;20490;-72
2022/01/07 00:14:27;;;;;;;4.15;2.70;;;;;;;0.56;61.67;101002.59;5080555;28;20054;-72
2022/01/07 00:16:52;;;;;;;5.88;2.92;;;;;;;0.54;61.82;101019.41;5080337;28;20028;-72
2022/01/07 00:19:19;;;;;;;9.50;2.72;;;;;;;0.52;61.94;101018.59;5080907;28;20046;-73
2022/01/07 00:21:45;;;;;;;6.78;2.72;;;;;;;0.40;61.93;101000.53;5080547;28;20036;-73
2022/01/07 00:24:12;;;;;;;7.95;2.90;;;;;;;0.56;62.22;101025.47;5074333;28;20043;-72
2022/01/07 00:26:38;;;;;;;7.75;2.80;;;;;;;0.58;62.10;101031.56;5077567;28;20103;-72
2022/01/07 00:29:06;;;;;;;6.47;2.85;;;;;;;0.61;62.45;101040.22;5078195;28;20124;-73
2022/01/07 00:31:37;;;;;;;7.80;2.45;;;;;;;0.57;62.03;101030.69;5078636;28;20081;-73
2022/01/07 00:34:03;;;;;;;4.80;2.67;;;;;;;0.48;62.14;101016.97;5078916;28;20035;-73
2022/01/07 00:36:28;;;;;;;5.10;2.70;;;;;;;0.62;62.05;101036.69;5077456;28;20020;-73
2022/01/07 00:38:53;;;;;;;7.80;3.03;;;;;;;0.58;61.91;101040.31;5076560;28;20039;-72
2022/01/07 00:41:19;;;;;;;7.20;2.65;;;;;;;0.58;62.08;101047.41;5073998;28;20060;-73
2022/01/07 00:43:50;;;;;;;6.93;2.97;;;;;;;0.53;62.48;101042.28;5080106;28;20062;-73
2022/01/07 00:46:16;;;;;;;6.90;2.90;;;;;;;0.50;62.56;101042.38;5076310;28;20032;-73
2022/01/07 00:48:41;;;;;;;7.03;3.15;;;;;;;0.47;62.79;101045.13;5074536;28;20039;-72
2022/01/07 00:51:07;;;;;;;8.73;3.03;;;;;;;0.47;63.16;101041.63;5084781;28;20048;-73
2022/01/07 00:53:32;;;;;;;4.78;2.92;;;;;;;0.51;62.56;101054.66;5070705;28;20103;-72
2022/01/07 00:55:57;;;;;;;7.20;2.95;;;;;;;0.48;62.57;101060.03;5080979;28;20027;-73
2022/01/07 00:58:23;;;;;;;7.20;3.03;;;;;;;0.42;62.83;101062.88;5079212;28;20063;-74
2022/01/07 01:00:48;;;;;;;5.22;2.63;;;;;;;0.44;63.19;101068.13;5082817;28;20028;-73
2022/01/07 01:03:14;;;;;;;10.20;3.58;;;;;;;0.16;63.51;101018.09;5083648;28;20028;-72
2022/01/07 01:05:42;;;;;;;7.63;3.60;;;;;;;0.09;63.91;101034.19;5070547;28;20051;-73
2022/01/07 01:08:08;;;;;;;6.70;2.88;;;;;;;0.22;64.19;101062.72;5074761;28;20471;-74
2022/01/07 01:10:33;;;;;;;8.60;3.50;;;;;;;0.18;64.57;101062.88;5082275;28;20028;-73
2022/01/07 01:13:02;;;;;;;5.97;3.15;;;;;;;0.20;64.44;101068.97;5079296;28;20039;-72
2022/01/07 01:15:28;;;;;;;4.32;2.50;;;;;;;0.16;64.03;101062.06;5075734;28;20029;-72
2022/01/07 01:17:56;;;;;;;7.32;2.92;;;;;;;0.22;63.92;101070.63;5074978;28;20491;-73
2022/01/07 01:20:22;;;;;;;5.50;3.10;;;;;;;0.13;64.19;101076.25;5079749;28;20386;-72
2022/01/07 01:22:48;;;;;;;7.07;2.90;;;;;;;0.08;64.81;101074.63;5081713;28;20115;-73
2022/01/07 01:25:14;;;;;;;6.32;3.20;;;;;;;-0.06;64.94;101056.66;5065799;28;20036;-74
2022/01/07 01:27:40;;;;;;;7.10;3.53;;;;;;;-0.07;65.36;101055.78;5079565;28;20043;-73
2022/01/07 01:30:08;;;;;;;7.78;3.85;;;;;;;-0.02;65.26;101074.09;5079797;28;20027;-73
2022/01/07 01:32:35;;;;;;;8.20;3.25;;;;;;;-0.06;65.68;101090.94;5077009;28;20089;-73
2022/01/07 01:35:01;;;;;;;9.13;3.88;;;;;;;-0.10;65.65;101082.25;5077999;28;20479;-71
2022/01/07 01:37:29;;;;;;;6.68;3.55;;;;;;;-0.10;65.92;101084.00;5076589;28;20491;-73
2022/01/07 01:39:55;;;;;;;7.38;3.38;;;;;;;-0.09;66.08;101052.31;5060670;28;20124;-74
2022/01/07 01:42:20;;;;;;;5.57;2.80;;;;;;;-0.09;66.02;101062.03;5075318;28;20222;-73
2022/01/07 01:44:46;;;;;;;10.45;3.15;;;;;;;-0.18;66.46;101062.31;5080725;28;20094;-73
2022/01/07 01:47:11;;;;;;;9.75;3.33;;;;;;;-0.23;66.47;101065.09;5076331;28;20113;-72
2022/01/07 01:49:36;;;;;;;6.05;3.00;;;;;;;-0.26;66.72;101053.78;5074579;28;20483;-72
2022/01/07 01:52:02;;;;;;;7.03;4.10;;;;;;;-0.19;66.56;101064.09;5079937;28;20048;-73
2022/01/07 01:54:28;;;;;;;13.50;3.40;;;;;;;-0.18;66.66;101067.59;5078774;28;20032;-72
2022/01/07 01:56:53;;;;;;;10.95;3.72;;;;;;;-0.31;66.84;101061.88;5079537;28;20027;-72
2022/01/07 01:59:27;;;;;;;5.93;3.25;;;;;;;-0.30;66.95;101066.22;5078646;28;20036;-72
2022/01/07 02:01:53;;;;;;;;;;;;;;;-0.34;67.33;101077.78;5077773;28;20033;-73
2022/01/07 02:04:19;;;;;;;6.80;4.00;;;;;;;-0.39;67.28;101052.44;5079041;28;19962;-69
2022/01/07 02:06:44;;;;;;;9.38;3.60;;;;;;;-0.34;67.72;101058.44;5083673;28;20028;-68
2022/01/07 02:09:10;;;;;;;9.43;4.65;;;;;;;-0.40;67.43;101064.78;5078258;28;20028;-67
2022/01/07 02:11:36;;;;;;;8.38;3.78;;;;;;;-0.41;67.71;101084.16;5074179;28;20032;-67
2022/01/07 02:14:01;;;;;;;7.32;3.72;;;;;;;-0.51;68.26;101077.41;5079914;28;20024;-68
2022/01/07 02:16:27;;;;;;;6.55;3.47;;;;;;;-0.51;68.37;101092.38;5077077;28;20056;-67
2022/01/07 02:18:53;;;;;;;6.93;3.70;;;;;;;-0.63;68.35;101079.56;5080007;28;20585;-68
2022/01/07 02:21:19;;;;;;;7.22;3.95;;;;;;;-0.68;68.54;101052.53;5068979;28;20039;-68
2022/01/07 02:23:45;;;;;;;7.10;4.03;;;;;;;-0.59;68.68;101065.38;5074139;28;20035;-72
2022/01/07 02:26:12;;;;;;;7.68;4.20;;;;;;;-0.66;68.76;101084.91;5080232;28;20032;-73
2022/01/07 02:28:40;;;;;;;10.90;3.97;;;;;;;-0.70;69.04;101094.69;5079774;28;20034;-73
2022/01/07 02:31:07;;;;;;;7.88;3.80;;;;;;;-0.72;69.26;101080.72;5079523;28;20037;-73
2022/01/07 02:33:33;;;;;;;9.10;4.35;;;;;;;-0.74;69.51;101071.13;5082524;28;20039;-72
2022/01/07 02:36:06;;;;;;;5.80;3.13;;;;;;;-0.77;69.79;101077.34;5087554;28;20027;-73
2022/01/07 02:38:31;;;;;;;9.33;4.27;;;;;;;-0.91;69.45;101069.00;5084835;28;20534;-72
2022/01/07 02:40:59;;;;;;;11.25;4.13;;;;;;;-0.94;69.46;101066.44;5079356;28;20024;-72
2022/01/07 02:43:30;;;;;;;7.53;4.30;;;;;;;-0.84;69.32;101075.78;5082962;28;20031;-73
2022/01/07 02:45:56;;;;;;;9.77;4.22;;;;;;;-0.89;69.48;101074.22;5082971;28;20028;-73
2022/01/07 02:48:21;;;;;;;9.02;3.92;;;;;;;-0.87;69.84;101090.84;5078587;28;20047;-71
2022/01/07 02:50:49;;;;;;;9.32;4.20;;;;;;;-0.96;70.08;101077.94;5054555;28;20130;-73
2022/01/07 02:53:14;;;;;;;6.85;4.07;;;;;;;-1.03;69.90;101071.97;5077946;28;20032;-72
2022/01/07 02:55:42;;;;;;;6.25;3.58;;;;;;;-1.01;69.89;101078.06;5080710;28;20020;-71
2022/01/07 02:58:11;;;;;;;7.97;4.32;;;;;;;-1.10;70.31;101051.16;5080691;28;20541;-72
2022/01/07 03:00:37;;;;;;;9.05;4.15;;;;;;;-0.98;70.52;101087.63;5080677;28;20070;-72
2022/01/07 03:03:04;;;;;;;8.98;3.80;;;;;;;-1.06;70.71;101084.38;5064941;28;20069;-72
2022/01/07 03:05:30;;;;;;;7.38;4.15;;;;;;;-1.12;70.66;101079.28;5079017;28;20067;-72
2022/01/07 03:07:55;;;;;;;11.68;4.78;;;;;;;-1.08;71.06;101083.53;5077963;28;20055;-73
2022/01/07 03:10:26;;;;;;;9.88;4.70;;;;;;;-1.11;70.96;101094.16;5072982;28;20029;-73
2022/01/07 03:12:52;;;;;;;10.07;5.03;;;;;;;-1.16;71.62;101094.28;5077262;28;20025;-72
2022/01/07 03:15:20;;;;;;;12.80;4.80;;;;;;;-1.15;71.35;101100.41;5082844;28;20020;-73
2022/01/07 03:17:45;;;;;;;8.60;4.85;;;;;;;-1.16;71.33;101106.59;5079051;28;20392;-73
2022/01/07 03:20:14;;;;;;;8.68;4.40;;;;;;;-1.21;71.65;101109.34;5073512;28;20027;-72
2022/01/07 03:22:41;;;;;;;8.48;4.57;;;;;;;-1.26;72.07;101102.50;5081740;28;20395;-72
2022/01/07 03:25:07;;;;;;;13.32;5.82;;;;;;;-1.37;72.28;101096.63;5081198;28;20024;-73
2022/01/07 03:27:33;;;;;;;15.43;6.80;;;;;;;-1.37;72.47;101110.66;5082669;28;20036;-72
2022/01/07 03:29:59;;;;;;;14.95;6.35;;;;;;;-1.42;72.38;101111.69;5079011;28;20062;-72
2022/01/07 03:32:24;;;;;;;14.35;6.47;;;;;;;-1.49;71.85;101099.63;5078456;28;20060;-72
2022/01/07 03:34:52;;;;;;;12.52;5.60;;;;;;;-1.51;71.62;101091.78;5083180;28;20122;-72
2022/01/07 03:37:17;;;;;;;10.48;4.97;;;;;;;-1.54;72.29;101099.75;5083096;28;20028;-73
2022/01/07 03:39:43;;;;;;;11.75;5.60;;;;;;;-1.62;72.79;101096.44;5080805;28;20047;-73
2022/01/07 03:42:09;;;;;;;14.05;6.28;;;;;;;-1.57;73.01;101112.09;5077874;28;20079;-72
2022/01/07 03:44:34;;;;;;;10.40;5.10;;;;;;;-1.62;73.20;101114.00;5074135;28;20109;-71
2022/01/07 03:46:59;;;;;;;12.15;5.50;;;;;;;-1.67;72.36;101100.09;5077629;28;20040;-72
2022/01/07 03:49:25;;;;;;;8.77;4.53;;;;;;;-1.75;72.90;101104.66;5073468;28;20707;-73
2022/01/07 03:51:50;;;;;;;8.20;4.40;;;;;;;-1.76;73.02;101113.47;5077837;28;20044;-73
2022/01/07 03:54:16;;;;;;;8.70;4.38;;;;;;;-1.82;72.61;101114.47;5074181;28;20034;-71
2022/01/07 03:56:41;;;;;;;11.15;4.78;;;;;;;-1.90;72.54;101100.69;5070858;28;20036;-72
2022/01/07 03:59:07;;;;;;;8.32;4.53;;;;;;;-1.87;72.21;101126.00;5075912;28;20085;-73
2022/01/07 04:01:36;;;;;;;9.70;5.20;;;;;;;-1.95;72.21;101118.31;5082356;28;20039;-73
2022/01/07 04:04:01;;;;;;;8.35;4.57;;;;;;;-1.99;72.40;101107.91;5077872;28;20028;-72
2022/01/07 04:06:30;;;;;;;9.93;4.60;;;;;;;-1.99;73.01;101115.78;5070713;28;20036;-73
2022/01/07 04:08:55;;;;;;;13.02;4.90;;;;;;;-2.01;73.86;101120.22;5075185;28;20032;-72
2022/01/07 04:11:21;;;;;;;11.38;5.10;;;;;;;-2.05;73.32;101119.44;5078898;28;20043;-72
2022/01/07 04:13:47;;;;;;;10.10;4.88;;;;;;;-2.13;73.34;101102.13;5081090;28;20613;-73
2022/01/07 04:16:13;;;;;;;10.30;5.30;;;;;;;-2.09;73.91;101119.53;5074743;28;20070;-73
2022/01/07 04:18:42;;;;;;;12.40;5.32;;;;;;;-2.13;74.32;101128.41;5079732;28;20020;-72
2022/01/07 04:21:10;;;;;;;10.57;5.35;;;;;;;-2.25;73.93;101119.06;5075465;28;20059;-71
2022/01/07 04:23:35;;;;;;;12.10;5.32;;;;;;;-2.26;74.48;101121.72;5077499;28;20043;-72
2022/01/07 04:26:01;;;;;;;9.25;4.80;;;;;;;-2.33;74.59;101107.00;5080710;28;20403;-73
2022/01/07 04:28:26;;;;;;;12.65;5.32;;;;;;;-2.32;75.51;101131.44;5080571;28;20047;-72
2022/01/07 04:30:52;;;;;;;11.95;5.22;;;;;;;-2.30;75.08;101138.44;5076006;28;20032;-73
2022/01/07 04:33:25;;;;;;;10.60;6.00;;;;;;;-2.38;75.58;101131.59;5078441;28;20027;-72
2022/01/07 04:35:51;;;;;;;11.75;6.10;;;;;;;-2.41;75.47;101123.75;5066562;28;20032;-72
2022/01/07 04:38:16;;;;;;;12.20;7.20;;;;;;;-2.39;75.62;101139.50;5082327;28;20438;-73
2022/01/07 04:40:41;;;;;;;10.60;6.35;;;;;;;-2.52;75.82;101136.28;5074263;28;20020;-73
2022/01/07 04:43:07;;;;;;;12.95;6.05;;;;;;;-2.54;75.60;101130.19;5074504;28;20489;-66
2022/01/07 04:45:34;;;;;;;13.40;6.68;;;;;;;-2.43;75.45;101146.59;5067637;28;20032;-67
2022/01/07 04:48:00;;;;;;;14.57;6.68;;;;;;;-2.45;75.89;101152.78;5071770;28;20838;-67
2022/01/07 04:50:30;;;;;;;11.35;6.07;;;;;;;-2.50;75.45;101154.63;5078695;28;20044;-67
2022/01/07 04:52:55;;;;;;;14.15;6.47;;;;;;;-2.53;75.60;101157.31;5085059;28;20028;-67
2022/01/07 04:55:24;;;;;;;15.65;7.20;;;;;;;-2.55;75.34;101144.22;5073597;28;20094;-67
2022/01/07 04:57:50;;;;;;;14.25;6.88;;;;;;;-2.61;75.61;101144.34;5084659;28;20024;-67
2022/01/07 05:00:20;;;;;;;16.05;6.63;;;;;;;-2.62;75.38;101157.50;5077282;28;20435;-67
2022/01/07 05:02:45;;;;;;;14.93;7.03;;;;;;;-2.66;75.43;101161.97;5077402;28;20514;-67
2022/01/07 05:05:11;;;;;;;13.45;7.30;;;;;;;-2.66;75.38;101154.09;5081343;28;20032;-68
2022/01/07 05:07:37;;;;;;;16.08;7.22;;;;;;;-2.71;75.80;101148.06;5065382;28;20067;-68
2022/01/07 05:10:09;;;;;;;16.88;7.72;;;;;;;-2.75;75.36;101164.78;5082158;28;20429;-68
2022/01/07 05:12:35;;;;;;;16.58;7.88;;;;;;;-2.76;74.83;101162.19;5078379;28;20074;-68
2022/01/07 05:15:02;;;;;;;13.27;6.95;;;;;;;-2.77;74.98;101163.94;5070552;28;20110;-68
2022/01/07 05:17:27;;;;;;;16.73;8.55;;;;;;;-2.83;75.34;101166.69;5075380;28;20039;-67
2022/01/07 05:19:53;;;;;;;19.33;8.70;;;;;;;-2.88;75.57;101171.19;5072967;28;20028;-67
2022/01/07 05:22:18;;;;;;;15.38;7.63;;;;;;;-2.98;75.17;101153.88;5075388;28;20020;-67
2022/01/07 05:24:43;;;;;;;15.82;8.75;;;;;;;-2.93;74.80;101169.53;5078975;28;20043;-68
2022/01/07 05:27:09;;;;;;;17.23;7.85;;;;;;;-3.01;74.21;101163.56;5070066;28;20032;-67
2022/01/07 05:29:35;;;;;;;18.17;7.85;;;;;;;-3.02;74.43;101167.97;5071870;28;20028;-67
2022/01/07 05:32:04;;;;;;;19.42;8.18;;;;;;;-3.07;74.26;101167.19;5080115;28;20154;-67
2022/01/07 05:34:29;;;;;;;16.70;7.90;;;;;;;-3.18;74.18;101161.28;5081935;28;20051;-67
2022/01/07 05:36:55;;;;;;;17.48;8.00;;;;;;;-3.20;74.58;101156.94;5076359;28;20460;-71
2022/01/07 05:39:20;;;;;;;16.25;7.75;;;;;;;-3.19;74.14;101175.28;5077195;28;20101;-73
2022/01/07 05:41:46;;;;;;;15.13;7.78;;;;;;;-3.28;74.61;101164.97;5083519;28;20032;-73
2022/01/07 05:44:11;;;;;;;20.27;8.18;;;;;;;-3.28;74.37;101177.22;5078439;28;20032;-71
2022/01/07 05:46:37;;;;;;;14.57;8.05;;;;;;;-3.38;74.85;101166.03;5078704;28;20110;-73
2022/01/07 05:49:05;;;;;;;27.95;7.47;;;;;;;-3.32;74.41;101188.66;5079766;28;20059;-73
2022/01/07 05:51:30;;;;;;;14.73;7.32;;;;;;;-3.35;74.12;101191.31;5087665;28;20560;-72
2022/01/07 05:53:56;;;;;;;18.40;8.93;;;;;;;-3.43;73.89;101188.84;5079844;28;20020;-73
2022/01/07 05:56:24;;;;;;;19.42;9.55;;;;;;;-3.50;73.57;101176.72;5082746;28;20475;-72
2022/01/07 05:58:49;;;;;;;16.63;8.10;;;;;;;-3.52;74.51;101183.75;5074110;28;20036;-72
2022/01/07 06:01:15;;;;;;;14.55;6.95;;;;;;;-3.48;75.20;101197.69;5078425;28;20032;-73
2022/01/07 06:03:41;;;;;;;16.50;7.85;;;;;;;-3.51;75.83;101198.56;5068948;28;20024;-72
2022/01/07 06:06:07;;;;;;;15.27;7.45;;;;;;;-3.53;75.67;101197.75;5071328;28;20051;-73
2022/01/07 06:08:33;;;;;;;13.30;7.70;;;;;;;-3.56;74.98;101210.91;5083834;28;20759;-73
2022/01/07 06:10:58;;;;;;;21.40;7.50;;;;;;;-3.60;75.74;101197.88;5083378;28;20068;-72
2022/01/07 06:13:24;;;;;;;16.98;7.13;;;;;;;-3.64;75.58;101185.72;5089381;28;20046;-71
2022/01/07 06:15:49;;;;;;;14.93;8.85;;;;;;;-3.65;75.75;101194.47;5077989;28;20036;-72
2022/01/07 06:18:15;;;;;;;20.38;8.98;;;;;;;-3.59;76.22;101212.69;5067241;28;20055;-72
2022/01/07 06:20:40;;;;;;;23.85;9.13;;;;;;;-3.60;76.79;101197.88;5067840;28;20505;-72
2022/01/07 06:23:06;;;;;;;14.73;8.10;;;;;;;-3.71;77.68;101177.06;5068755;28;20028;-72
2022/01/07 06:25:31;;;;;;;14.85;8.15;;;;;;;-3.62;77.79;101197.91;5079365;28;20415;-72
2022/01/07 06:28:00;;;;;;;17.27;7.18;;;;;;;-3.71;77.38;101186.72;5081338;28;20495;-72
2022/01/07 06:30:25;;;;;;;26.08;8.90;;;;;;;-3.60;77.04;101210.97;5082368;28;20388;-73
2022/01/07 06:32:51;;;;;;;18.70;7.90;;;;;;;-3.61;77.12;101212.72;5079182;28;20044;-71
2022/01/07 06:35:17;;;;;;;25.02;8.30;;;;;;;-3.60;77.64;101219.72;5075167;28;20533;-72
2022/01/07 06:37:45;;;;;;;24.88;8.52;;;;;;;-3.61;77.50;101214.50;5072351;28;20020;-67
2022/01/07 06:40:10;;;;;;;24.90;9.00;;;;;;;-3.62;76.96;101223.22;5062457;28;20495;-66
2022/01/07 06:42:36;;;;;;;28.13;9.50;;;;;;;-3.62;77.62;101224.09;5073859;28;20036;-68
2022/01/07 06:45:04;;;;;;;22.85;8.32;;;;;;;-3.67;77.37;101230.31;5075580;28;20027;-68
2022/01/07 06:47:32;;;;;;;19.17;8.07;;;;;;;-3.67;77.49;101233.81;5077007;28;20125;-67
2022/01/07 06:50:00;;;;;;;13.25;7.07;;;;;;;-3.68;77.54;101232.06;5083546;28;20041;-68
2022/01/07 06:52:26;;;;;;;20.77;8.00;;;;;;;-3.70;77.15;101239.09;5082257;28;20054;-67
2022/01/07 06:54:51;;;;;;;21.17;8.02;;;;;;;-3.67;77.04;101243.41;5084975;28;20099;-68
2022/01/07 06:57:17;;;;;;;17.30;8.77;;;;;;;-3.70;77.85;101233.84;5074492;28;20498;-67
2022/01/07 06:59:45;;;;;;;13.77;8.20;;;;;;;-3.73;77.46;101235.66;5077251;28;20035;-67
2022/01/07 07:02:10;;;;;;;26.80;9.73;;;;;;;-3.67;78.41;101249.53;5075680;28;20100;-67
2022/01/07 07:04:36;;;;;;;24.23;9.32;;;;;;;-3.74;77.61;101240.00;5074082;28;20456;-68
2022/01/07 07:07:01;;;;;;;21.85;9.05;;;;;;;-3.73;77.96;101233.03;5086628;28;20039;-68
2022/01/07 07:09:27;;;;;;;19.73;10.25;;;;;;;-3.70;79.09;101233.84;5080024;28;20042;-67
2022/01/07 07:11:52;;;;;;;23.35;11.93;;;;;;;-3.66;79.18;101248.63;5081759;28;20040;-68
2022/01/07 07:14:18;;;;;;;28.27;12.98;;;;;;;-3.71;79.09;101244.38;5071415;28;20038;-67
2022/01/07 07:16:43;;;;;;;29.25;14.15;;;;;;;-3.69;78.72;101248.69;5081670;28;20012;-72
2022/01/07 07:19:10;;;;;;;31.23;14.23;;;;;;;-3.70;79.57;101254.81;5076640;28;20052;-72
2022/01/07 07:21:35;;;;;;;30.60;14.52;;;;;;;-3.67;80.18;101246.03;5075012;28;20039;-72
2022/01/07 07:24:04;;;;;;;40.30;17.67;;;;;;;-3.61;80.20;101252.03;5083570;28;20102;-72
2022/01/07 07:26:31;;;;;;;31.90;16.80;;;;;;;-3.57;80.52;101260.72;5083906;28;20043;-67
2022/01/07 07:28:56;;;;;;;35.65;17.63;;;;;;;-3.59;81.17;101234.53;5077832;28;20027;-67
2022/01/07 07:31:22;;;;;;;41.80;19.83;;;;;;;-3.51;81.51;101244.91;5064956;28;20024;-67
2022/01/07 07:36:31;;;;;;;31.85;16.25;;;;;;;-3.39;82.03;101250.81;5080998;28;20025;-66
2022/01/07 07:39:02;;;;;;;47.45;20.27;;;;;;;-3.33;81.92;101239.34;5052483;28;20051;-67
2022/01/07 07:41:29;;;;;;;44.70;19.67;;;;;;;-3.34;82.04;101237.63;5081090;28;20028;-67
2022/01/07 07:43:56;;;;;;;52.38;23.05;;;;;;;-3.26;81.92;101246.25;5085385;28;20023;-67
2022/01/07 07:46:22;;;;;;;53.85;24.05;;;;;;;-3.25;82.69;101235.72;5075454;28;20032;-68
2022/01/07 07:48:48;;;;;;;64.10;28.05;;;;;;;-3.12;82.45;101255.59;5078828;28;20032;-67
2022/01/07 07:51:15;;;;;;;55.65;25.95;;;;;;;-3.04;83.03;101253.69;5073322;28;20113;-66
2022/01/07 07:53:41;;;;;;;47.20;24.48;;;;;;;-2.96;83.24;101240.44;5067148;28;20029;-67
2022/01/07 07:56:08;;;;;;;43.45;23.17;;;;;;;-2.91;84.22;101252.59;5082089;28;20032;-67
2022/01/07 07:58:34;;;;;;;51.53;23.13;;;;;;;-2.75;84.13;101259.28;5076008;28;20040;-68
2022/01/07 08:01:00;;;;;;;50.13;22.02;;;;;;;-2.68;84.70;101245.13;5073408;28;20613;-68
2022/01/07 08:03:26;;;;;;;46.13;20.40;;;;;;;-2.58;84.51;101254.56;5078802;28;20024;-68
2022/01/07 08:05:51;;;;;;;42.30;19.20;;;;;;;-2.49;85.02;101258.75;5076840;28;20034;-68
2022/01/07 08:08:17;;;;;;;43.28;18.00;;;;;;;-2.46;84.40;101245.56;5077595;28;20025;-67
2022/01/07 08:10:52;;;;;;;44.08;18.05;;;;;;;-2.30;84.49;101248.78;5074987;28;20112;-71
2022/01/07 08:16:20;;;;;;;30.35;14.35;;;;;;;-2.13;83.38;101244.00;5025799;28;20036;-71
2022/01/07 08:18:53;;;;;;;26.17;13.23;;;;;;;-2.03;83.28;101238.53;5053368;28;20036;-72
2022/01/07 08:21:20;;;;;;;24.67;12.45;;;;;;;-1.98;82.13;101231.41;5075678;28;20031;-71
2022/01/07 08:23:46;;;;;;;22.08;12.52;;;;;;;-1.81;81.85;101246.78;5086374;28;20107;-72
2022/01/07 08:26:13;;;;;;;30.23;13.18;;;;;;;-1.71;81.18;101248.31;5073287;28;20519;-72
2022/01/07 08:28:43;;;;;;;22.55;11.43;;;;;;;-1.63;80.70;101235.84;5078808;28;20055;-71
2022/01/07 08:36:24;;;;;;;17.58;10.18;;;;;;;-1.34;78.70;101236.88;5075696;28;20082;-72
2022/01/07 08:38:50;;;;;;;20.15;10.02;;;;;;;-1.35;77.84;101218.50;5078864;28;20035;-71
2022/01/07 08:41:19;;;;;;;17.83;9.55;;;;;;;-1.17;77.46;101239.06;5075120;28;20082;-72
2022/01/07 08:43:44;;;;;;;16.40;7.85;;;;;;;-1.04;76.79;101243.97;5080205;28;20047;-68
2022/01/07 08:46:10;;;;;;;23.52;9.32;;;;;;;-0.93;75.81;101241.06;5078190;28;20024;-68
2022/01/07 08:48:39;;;;;;;16.52;7.88;;;;;;;-0.81;74.45;101244.22;5078616;28;20042;-68
2022/01/07 08:51:07;;;;;;;16.05;7.55;;;;;;;-0.72;73.94;101248.38;5076493;28;20131;-67
2022/01/07 08:53:33;;;;;;;12.07;6.78;;;;;;;-0.62;73.35;101229.66;5065958;28;20597;-67
2022/01/07 08:56:01;;;;;;;10.70;6.38;;;;;;;-0.59;72.28;101234.84;5080973;28;20081;-67
2022/01/07 08:58:27;;;;;;;12.88;6.38;;;;;;;-0.46;71.72;101240.63;5059514;28;20060;-68
2022/01/07 09:00:52;;;;;;;11.98;6.28;;;;;;;-0.45;71.38;101216.84;5072165;28;20111;-68
2022/01/07 09:03:18;;;;;;;13.65;6.35;;;;;;;-0.29;70.70;101244.50;5079684;28;20107;-67
2022/01/07 09:05:44;;;;;;;15.15;5.80;;;;;;;-0.19;70.41;101242.47;5077376;28;20032;-68
2022/01/07 09:08:15;;;;;;;12.48;5.63;;;;;;;-0.15;69.41;101230.94;5086144;28;20032;-67
2022/01/07 09:10:41;;;;;;;14.55;6.18;;;;;;;-0.02;68.92;101240.19;5075709;28;20036;-67
2022/01/07 09:13:07;;;;;;;19.40;7.15;;;;;;;0.05;68.05;101236.47;5083232;28;20519;-67
2022/01/07 09:15:33;;;;;;;13.57;5.22;;;;;;;0.13;67.62;101226.56;5083248;28;20122;-67
2022/01/07 09:17:58;;;;;;;12.32;5.35;;;;;;;0.24;67.25;101224.44;5080573;28;20055;-67
2022/01/07 09:20:24;;;;;;;10.20;5.07;;;;;;;0.34;66.52;101225.88;5062674;28;20119;-67
2022/01/07 09:22:50;;;;;;;11.43;5.32;;;;;;;0.40;65.43;101225.69;5080469;28;20023;-67
2022/01/07 09:25:16;;;;;;;7.93;4.90;;;;;;;0.48;64.74;101213.09;5082784;28;20100;-67
2022/01/07 09:27:42;;;;;;;12.25;5.22;;;;;;;0.57;64.63;101212.78;5086441;28;20040;-67
2022/01/07 09:30:10;;;;;;;10.07;4.57;;;;;;;0.65;64.24;101213.41;5087794;28;20039;-67
2022/01/07 09:32:36;;;;;;;11.55;4.75;;;;;;;0.70;63.89;101206.19;5084352;28;20040;-67
2022/01/07 09:35:02;;;;;;;12.45;4.80;;;;;;;0.78;63.07;101212.09;5070682;28;20082;-68
2022/01/07 09:37:27;;;;;;;10.25;4.10;;;;;;;0.81;62.98;101211.97;5086146;28;20038;-68
2022/01/07 09:39:53;;;;;;;10.32;4.53;;;;;;;0.86;62.06;101209.16;5077102;28;20020;-66
2022/01/07 09:42:18;;;;;;;11.63;4.65;;;;;;;0.93;61.66;101210.72;5085108;28;20030;-67
2022/01/07 09:44:44;;;;;;;9.38;4.28;;;;;;;0.98;61.55;101211.41;5075651;28;20025;-67
2022/01/07 09:47:11;;;;;;;7.53;3.53;;;;;;;1.05;60.39;101200.56;5081432;28;20024;-68
2022/01/07 09:49:40;;;;;;;10.65;4.22;;;;;;;1.06;60.09;101190.88;5081206;28;20050;-68
2022/01/07 09:52:06;;;;;;;5.28;3.22;;;;;;;1.15;59.10;101199.31;5080755;28;20060;-67
2022/01/07 09:54:37;;;;;;;8.00;3.45;;;;;;;1.20;58.65;101189.47;5083130;28;20087;-68
2022/01/07 09:57:04;;;;;;;6.32;3.38;;;;;;;1.25;58.82;101198.06;5069745;28;20024;-68
2022/01/07 09:59:30;;;;;;;7.55;3.35;;;;;;;1.33;58.31;101200.44;5079405;28;20170;-67
2022/01/07 10:02:04;;;;;;;7.80;3.95;;;;;;;1.31;58.10;101170.56;5084707;28;20119;-68
2022/01/07 10:04:40;;;;;;;7.60;3.92;;;;;;;1.47;57.16;101188.47;5077100;28;20033;-68
2022/01/07 10:07:22;;;;;;;5.85;3.42;;;;;;;1.54;57.49;101191.72;5069788;28;20082;-68
2022/01/07 10:09:57;;;;;;;6.72;3.55;;;;;;;1.57;57.21;101173.97;5084464;28;20395;-68
2022/01/07 10:12:22;;;;;;;8.40;4.20;;;;;;;1.52;56.99;101170.63;5080895;28;20032;-67
2022/01/07 10:15:09;;;;;;;3.97;2.85;;;;;;;1.62;55.96;101172.00;5079425;28;20019;-68
2022/01/07 10:17:34;;;;;;;6.78;3.15;;;;;;;1.74;55.22;101158.31;5078928;28;20345;-68
2022/01/07 10:20:01;;;;;;;7.72;3.10;;;;;;;1.76;55.35;101167.06;5089844;28;20032;-68
2022/01/07 10:22:26;;;;;;;5.07;3.30;;;;;;;1.82;55.86;101153.63;5076526;28;20028;-67
2022/01/07 10:25:02;;;;;;;6.93;3.10;;;;;;;1.87;55.78;101153.44;5080004;28;20024;-68
2022/01/07 10:27:36;;;;;;;7.10;3.47;;;;;;;1.90;55.75;101159.47;5082677;28;20025;-67
2022/01/07 10:30:11;;;;;;;7.93;3.08;;;;;;;1.95;55.46;101154.00;5080513;28;20537;-68
2022/01/07 10:32:37;;;;;;;7.80;3.65;;;;;;;1.99;54.27;101151.16;5060851;28;20062;-67
2022/01/07 10:35:15;;;;;;;6.15;2.83;;;;;;;2.04;53.75;101148.34;5074051;28;20462;-67
2022/01/07 10:37:51;;;;;;;7.07;3.42;;;;;;;2.10;53.72;101141.00;5068789;28;20032;-68
2022/01/07 10:40:27;;;;;;;7.05;3.22;;;;;;;2.16;53.41;101143.41;5055761;28;20058;-68
2022/01/07 10:43:13;;;;;;;5.30;2.78;;;;;;;2.19;53.20;101138.00;5061185;28;20032;-67
2022/01/07 10:45:44;;;;;;;7.63;4.25;;;;;;;2.23;53.69;101136.09;5080965;28;20379;-67
2022/01/07 10:48:10;;;;;;;6.70;3.20;;;;;;;2.23;54.10;101121.06;5062581;28;20036;-67
2022/01/07 10:50:42;;;;;;;6.80;3.40;;;;;;;2.32;53.99;101135.69;5081160;28;20076;-68
2022/01/07 10:53:21;;;;;;;8.70;4.22;;;;;;;2.38;53.79;101135.44;5070331;28;20047;-68
2022/01/07 10:56:03;;;;;;;5.93;3.47;;;;;;;2.42;53.26;101131.78;5080513;28;20146;-68
2022/01/07 10:58:39;;;;;;;6.00;3.72;;;;;;;2.44;52.90;101124.63;5070427;28;20036;-68
2022/01/07 11:01:04;;;;;;;6.85;3.33;;;;;;;2.50;53.08;101118.19;5079803;28;20033;-69
2022/01/07 11:03:34;;;;;;;8.07;4.13;;;;;;;2.55;53.18;101116.22;5082205;28;20039;-68
2022/01/07 11:06:02;;;;;;;8.32;3.95;;;;;;;2.61;53.14;101114.16;5081686;28;20028;-68
2022/01/07 11:08:28;;;;;;;6.18;3.85;;;;;;;2.64;53.15;101111.38;5055422;28;20031;-67
2022/01/07 11:10:55;;;;;;;6.18;4.18;;;;;;;2.64;53.16;101102.59;5080861;28;20028;-68
2022/01/07 11:13:21;;;;;;;8.43;4.45;;;;;;;2.74;53.29;101098.63;5079552;28;20052;-68
2022/01/07 11:15:46;;;;;;;7.43;3.95;;;;;;;2.80;52.84;101093.06;5082371;28;20064;-68
2022/01/07 11:18:11;;;;;;;7.57;4.50;;;;;;;2.85;53.17;101091.06;5068790;28;20093;-68
2022/01/07 11:20:38;;;;;;;8.90;4.00;;;;;;;2.87;53.10;101092.72;5079784;28;20107;-68
2022/01/07 11:23:03;;;;;;;7.07;3.65;;;;;;;2.87;53.06;101081.28;5074071;28;20039;-65
2022/01/07 11:25:32;;;;;;;7.65;4.00;;;;;;;3.00;52.38;101079.78;5074248;28;20178;-65
2022/01/07 11:28:00;;;;;;;9.02;3.95;;;;;;;3.01;52.49;101081.50;5081871;28;20028;-65
2022/01/07 11:30:33;;;;;;;6.50;3.55;;;;;;;3.05;52.41;101091.91;5076376;28;20052;-66
2022/01/07 11:33:00;;;;;;;6.03;3.25;;;;;;;3.08;51.92;101088.25;5074109;28;20107;-65